EWG30R LIEO-EDDV
Flight info
| Callsign | EWG30R |
|---|---|
| Flight time | 1h 55m |
| Altitude | 34000 |
| Route | OLBEK Q125 IBROS DCT TOBGA DCT ABREG DCT LOKTA DCT TEDGO DCT HAREM DCT LOHRE DCT MASEK Z99 ELNAT P605 WERRA WERRA2R |
| Aircraft | A321/M-SDE3FGHIRWY/LB1 |
Departure
| Time | 2026-05-01 10:15 |
|---|---|
| Airport | Olbia Costa Smeralda Airport (LIEO) |
Arrival
| Time | 2026-05-01 12:11 |
|---|---|
| Airport | Hannover Airport (EDDV) |
| Time | Latitude | Longitude | Altitude | Speed | Heading |
|---|---|---|---|---|---|
| 2026-05-01 10:06 | 40.90064 | 9.51578 | 39 ft | 0 kts | 34° |
| 2026-05-01 10:10 | 40.90086 | 9.51563 | 38 ft | 4 kts | 297° |
| 2026-05-01 10:11 | 40.90093 | 9.51514 | 40 ft | 7 kts | 254° |
| 2026-05-01 10:11 | 40.90055 | 9.51496 | 40 ft | 6 kts | 158° |
| 2026-05-01 10:11 | 40.90012 | 9.51516 | 40 ft | 7 kts | 168° |
| 2026-05-01 10:11 | 40.89958 | 9.51510 | 40 ft | 10 kts | 195° |
| 2026-05-01 10:12 | 40.89902 | 9.51438 | 41 ft | 14 kts | 236° |
| 2026-05-01 10:12 | 40.89842 | 9.51323 | 41 ft | 17 kts | 236° |
| 2026-05-01 10:12 | 40.89701 | 9.51051 | 43 ft | 18 kts | 234° |
| 2026-05-01 10:13 | 40.89630 | 9.50918 | 43 ft | 18 kts | 234° |
| 2026-05-01 10:13 | 40.89559 | 9.50786 | 42 ft | 17 kts | 235° |
| 2026-05-01 10:13 | 40.89492 | 9.50653 | 45 ft | 17 kts | 234° |
| 2026-05-01 10:14 | 40.89359 | 9.50441 | 46 ft | 13 kts | 191° |
| 2026-05-01 10:14 | 40.89282 | 9.50482 | 46 ft | 13 kts | 117° |
| 2026-05-01 10:14 | 40.89261 | 9.50593 | 47 ft | 12 kts | 98° |
| 2026-05-01 10:14 | 40.89307 | 9.50696 | 44 ft | 19 kts | 55° |
| 2026-05-01 10:15 | 40.89524 | 9.51107 | 43 ft | 88 kts | 55° |
| 2026-05-01 10:15 | 40.89990 | 9.52000 | 37 ft | 146 kts | 56° |
| 2026-05-01 10:15 | 40.90578 | 9.53168 | 608 ft | 148 kts | 53° |
| 2026-05-01 10:15 | 40.91096 | 9.54338 | 1419 ft | 148 kts | 53° |
| 2026-05-01 10:16 | 40.91697 | 9.55474 | 1798 ft | 162 kts | 53° |
| 2026-05-01 10:16 | 40.92400 | 9.56750 | 2024 ft | 183 kts | 52° |
| 2026-05-01 10:16 | 40.94064 | 9.59783 | 2477 ft | 220 kts | 54° |
| 2026-05-01 10:17 | 40.94968 | 9.61455 | 3011 ft | 227 kts | 54° |
| 2026-05-01 10:17 | 40.97140 | 9.64501 | 4259 ft | 235 kts | 24° |
| 2026-05-01 10:17 | 40.98740 | 9.64954 | 4908 ft | 238 kts | 7° |
| 2026-05-01 10:18 | 41.02065 | 9.65318 | 6362 ft | 242 kts | 7° |
| 2026-05-01 10:18 | 41.03758 | 9.65502 | 6986 ft | 245 kts | 6° |
| 2026-05-01 10:18 | 41.05458 | 9.65689 | 7595 ft | 246 kts | 6° |
| 2026-05-01 10:19 | 41.07171 | 9.65880 | 8201 ft | 249 kts | 6° |
| 2026-05-01 10:19 | 41.08908 | 9.66075 | 8801 ft | 252 kts | 5° |
| 2026-05-01 10:19 | 41.10705 | 9.66275 | 9128 ft | 265 kts | 5° |
| 2026-05-01 10:20 | 41.14451 | 9.66690 | 10243 ft | 273 kts | 4° |
| 2026-05-01 10:20 | 41.16379 | 9.66903 | 10558 ft | 287 kts | 4° |
| 2026-05-01 10:20 | 41.18429 | 9.67128 | 10684 ft | 305 kts | 4° |
| 2026-05-01 10:20 | 41.20602 | 9.67367 | 10807 ft | 322 kts | 4° |
| 2026-05-01 10:21 | 41.22886 | 9.67619 | 11027 ft | 334 kts | 4° |
| 2026-05-01 10:21 | 41.27581 | 9.68148 | 11998 ft | 342 kts | 4° |
| 2026-05-01 10:21 | 41.29958 | 9.68415 | 12526 ft | 344 kts | 4° |
| 2026-05-01 10:22 | 41.34726 | 9.68950 | 13571 ft | 349 kts | 4° |
| 2026-05-01 10:22 | 41.39600 | 9.69495 | 14566 ft | 354 kts | 4° |
| 2026-05-01 10:23 | 41.42059 | 9.69768 | 15043 ft | 355 kts | 4° |
| 2026-05-01 10:23 | 41.47018 | 9.70320 | 15994 ft | 359 kts | 4° |
| 2026-05-01 10:23 | 41.49511 | 9.70603 | 16476 ft | 361 kts | 4° |
| 2026-05-01 10:24 | 41.54535 | 9.71179 | 17439 ft | 364 kts | 3° |
| 2026-05-01 10:24 | 41.59601 | 9.71750 | 18379 ft | 367 kts | 3° |
| 2026-05-01 10:25 | 41.64704 | 9.72321 | 19163 ft | 370 kts | 3° |
| 2026-05-01 10:25 | 41.69862 | 9.72896 | 19892 ft | 374 kts | 2° |
| 2026-05-01 10:26 | 41.72461 | 9.73189 | 20255 ft | 376 kts | 2° |
| 2026-05-01 10:26 | 41.75073 | 9.73490 | 20605 ft | 378 kts | 2° |
| 2026-05-01 10:26 | 41.80340 | 9.74100 | 21310 ft | 382 kts | 2° |
| 2026-05-01 10:27 | 41.85665 | 9.74701 | 21987 ft | 386 kts | 2° |
| 2026-05-01 10:27 | 41.91014 | 9.75302 | 22665 ft | 390 kts | 2° |
| 2026-05-01 10:28 | 41.93726 | 9.75613 | 23005 ft | 392 kts | 2° |
| 2026-05-01 10:28 | 41.99197 | 9.76244 | 23663 ft | 396 kts | 2° |
| 2026-05-01 10:28 | 42.01952 | 9.76560 | 23978 ft | 398 kts | 2° |
| 2026-05-01 10:29 | 42.07502 | 9.77193 | 24527 ft | 402 kts | 2° |
| 2026-05-01 10:29 | 42.10296 | 9.77512 | 24802 ft | 403 kts | 2° |
| 2026-05-01 10:30 | 42.15908 | 9.78156 | 25360 ft | 406 kts | 2° |
| 2026-05-01 10:30 | 42.21560 | 9.78810 | 25897 ft | 410 kts | 2° |
| 2026-05-01 10:31 | 42.27266 | 9.79465 | 26430 ft | 413 kts | 2° |
| 2026-05-01 10:31 | 42.33003 | 9.80120 | 26950 ft | 416 kts | 2° |
| 2026-05-01 10:32 | 42.38791 | 9.80794 | 27457 ft | 419 kts | 2° |
| 2026-05-01 10:32 | 42.41702 | 9.81131 | 27700 ft | 421 kts | 2° |
| 2026-05-01 10:32 | 42.47558 | 9.81806 | 28196 ft | 424 kts | 2° |
| 2026-05-01 10:33 | 42.53458 | 9.82494 | 28654 ft | 427 kts | 2° |
| 2026-05-01 10:33 | 42.59397 | 9.83190 | 29088 ft | 430 kts | 2° |
| 2026-05-01 10:34 | 42.62374 | 9.83539 | 29305 ft | 431 kts | 2° |
| 2026-05-01 10:34 | 42.65364 | 9.83887 | 29484 ft | 432 kts | 2° |
| 2026-05-01 10:34 | 42.68370 | 9.84237 | 29671 ft | 433 kts | 2° |
| 2026-05-01 10:35 | 42.74374 | 9.84942 | 30200 ft | 432 kts | 2° |
| 2026-05-01 10:35 | 42.76357 | 9.85174 | 30374 ft | 432 kts | 2° |
| 2026-05-01 10:35 | 42.80316 | 9.85636 | 30677 ft | 431 kts | 2° |
| 2026-05-01 10:35 | 42.83300 | 9.85983 | 30898 ft | 430 kts | 2° |
| 2026-05-01 10:36 | 42.89254 | 9.86598 | 31312 ft | 427 kts | 357° |
| 2026-05-01 10:36 | 42.92220 | 9.86402 | 31522 ft | 425 kts | 353° |
| 2026-05-01 10:36 | 42.95166 | 9.86138 | 31723 ft | 425 kts | 353° |
| 2026-05-01 10:37 | 42.97164 | 9.85960 | 31878 ft | 425 kts | 353° |
| 2026-05-01 10:37 | 43.03016 | 9.85448 | 32265 ft | 424 kts | 353° |
| 2026-05-01 10:37 | 43.05967 | 9.85191 | 32340 ft | 426 kts | 353° |
| 2026-05-01 10:38 | 43.11941 | 9.84671 | 32343 ft | 434 kts | 353° |
| 2026-05-01 10:38 | 43.18007 | 9.84139 | 32342 ft | 439 kts | 353° |
| 2026-05-01 10:39 | 43.24120 | 9.83596 | 32346 ft | 441 kts | 353° |
| 2026-05-01 10:39 | 43.30243 | 9.83058 | 32345 ft | 441 kts | 353° |
| 2026-05-01 10:40 | 43.36353 | 9.82517 | 32348 ft | 441 kts | 353° |
| 2026-05-01 10:40 | 43.42480 | 9.81976 | 32348 ft | 441 kts | 353° |
| 2026-05-01 10:41 | 43.48608 | 9.81441 | 32354 ft | 441 kts | 353° |
| 2026-05-01 10:42 | 43.57799 | 9.80618 | 32356 ft | 441 kts | 353° |
| 2026-05-01 10:42 | 43.63932 | 9.80068 | 32353 ft | 441 kts | 353° |
| 2026-05-01 10:43 | 43.70057 | 9.79530 | 32349 ft | 441 kts | 353° |
| 2026-05-01 10:43 | 43.76180 | 9.78989 | 32347 ft | 441 kts | 353° |
| 2026-05-01 10:44 | 43.82303 | 9.78425 | 32346 ft | 441 kts | 353° |
| 2026-05-01 10:44 | 43.88393 | 9.77870 | 32339 ft | 441 kts | 353° |
| 2026-05-01 10:45 | 43.94518 | 9.77326 | 32344 ft | 441 kts | 353° |
| 2026-05-01 10:45 | 44.00642 | 9.76781 | 32342 ft | 441 kts | 353° |
| 2026-05-01 10:46 | 44.06764 | 9.76222 | 32330 ft | 441 kts | 353° |
| 2026-05-01 10:46 | 44.12884 | 9.75666 | 32330 ft | 441 kts | 353° |
| 2026-05-01 10:47 | 44.19009 | 9.75110 | 32335 ft | 441 kts | 353° |
| 2026-05-01 10:47 | 44.25125 | 9.74552 | 32338 ft | 441 kts | 353° |
| 2026-05-01 10:48 | 44.31239 | 9.73991 | 32341 ft | 441 kts | 353° |
| 2026-05-01 10:48 | 44.37368 | 9.73434 | 32349 ft | 441 kts | 353° |
| 2026-05-01 10:49 | 44.43497 | 9.72874 | 32355 ft | 441 kts | 353° |
| 2026-05-01 10:49 | 44.49622 | 9.72309 | 32356 ft | 442 kts | 353° |
| 2026-05-01 10:50 | 44.55768 | 9.71742 | 32363 ft | 442 kts | 353° |
| 2026-05-01 10:50 | 44.61908 | 9.71180 | 32368 ft | 443 kts | 353° |
| 2026-05-01 10:51 | 44.68058 | 9.70608 | 32377 ft | 443 kts | 354° |
| 2026-05-01 10:51 | 44.74224 | 9.70037 | 32380 ft | 444 kts | 354° |
| 2026-05-01 10:52 | 44.80397 | 9.69466 | 32387 ft | 445 kts | 354° |
| 2026-05-01 10:52 | 44.86578 | 9.68895 | 32382 ft | 445 kts | 354° |
| 2026-05-01 10:53 | 44.92766 | 9.68321 | 32383 ft | 446 kts | 354° |
| 2026-05-01 10:53 | 44.98958 | 9.67742 | 32386 ft | 446 kts | 354° |
| 2026-05-01 10:54 | 45.05112 | 9.67163 | 32385 ft | 446 kts | 354° |
| 2026-05-01 10:54 | 45.11307 | 9.66587 | 32382 ft | 447 kts | 355° |
| 2026-05-01 10:55 | 45.17518 | 9.66003 | 32384 ft | 447 kts | 355° |
| 2026-05-01 10:55 | 45.23725 | 9.65423 | 32391 ft | 447 kts | 355° |
| 2026-05-01 10:56 | 45.29931 | 9.64836 | 32349 ft | 447 kts | 355° |
| 2026-05-01 10:56 | 45.36143 | 9.64242 | 32314 ft | 448 kts | 355° |
| 2026-05-01 10:57 | 45.42366 | 9.63645 | 32285 ft | 448 kts | 355° |
| 2026-05-01 10:57 | 45.48596 | 9.63050 | 32260 ft | 448 kts | 355° |
| 2026-05-01 10:58 | 45.54822 | 9.62463 | 32248 ft | 449 kts | 356° |
| 2026-05-01 10:58 | 45.61049 | 9.61871 | 32413 ft | 449 kts | 356° |
| 2026-05-01 10:59 | 45.67283 | 9.61284 | 32409 ft | 449 kts | 356° |
| 2026-05-01 10:59 | 45.73508 | 9.60691 | 32409 ft | 449 kts | 356° |
| 2026-05-01 11:00 | 45.79688 | 9.60099 | 32408 ft | 448 kts | 356° |
| 2026-05-01 11:00 | 45.85910 | 9.59501 | 32405 ft | 447 kts | 356° |
| 2026-05-01 11:01 | 45.92119 | 9.58902 | 32405 ft | 447 kts | 356° |
| 2026-05-01 11:01 | 45.98323 | 9.58293 | 32395 ft | 446 kts | 357° |
| 2026-05-01 11:02 | 46.04517 | 9.57691 | 32387 ft | 446 kts | 357° |
| 2026-05-01 11:02 | 46.10714 | 9.57088 | 32384 ft | 446 kts | 357° |
| 2026-05-01 11:03 | 46.16899 | 9.56494 | 32377 ft | 446 kts | 358° |
| 2026-05-01 11:03 | 46.23094 | 9.55895 | 32373 ft | 446 kts | 357° |
| 2026-05-01 11:04 | 46.29287 | 9.55292 | 32361 ft | 446 kts | 358° |
| 2026-05-01 11:04 | 46.35464 | 9.54438 | 32353 ft | 447 kts | 354° |
| 2026-05-01 11:05 | 46.41629 | 9.53166 | 32348 ft | 448 kts | 353° |
| 2026-05-01 11:05 | 46.47791 | 9.51854 | 32333 ft | 448 kts | 354° |
| 2026-05-01 11:06 | 46.53932 | 9.50639 | 32334 ft | 448 kts | 354° |
| 2026-05-01 11:06 | 46.60100 | 9.49472 | 32326 ft | 448 kts | 355° |
| 2026-05-01 11:07 | 46.69372 | 9.47698 | 32327 ft | 448 kts | 355° |
| 2026-05-01 11:07 | 46.75540 | 9.46492 | 32324 ft | 448 kts | 355° |
| 2026-05-01 11:08 | 46.81724 | 9.45283 | 32320 ft | 448 kts | 355° |
| 2026-05-01 11:09 | 46.90979 | 9.43478 | 32314 ft | 447 kts | 355° |
| 2026-05-01 11:09 | 46.97153 | 9.42261 | 32312 ft | 448 kts | 355° |
| 2026-05-01 11:10 | 47.06412 | 9.40448 | 32314 ft | 447 kts | 355° |
| 2026-05-01 11:10 | 47.12589 | 9.39230 | 32314 ft | 448 kts | 356° |
| 2026-05-01 11:11 | 47.18693 | 9.38026 | 32326 ft | 448 kts | 356° |
| 2026-05-01 11:11 | 47.24938 | 9.36787 | 32347 ft | 448 kts | 356° |
| 2026-05-01 11:12 | 47.31064 | 9.35568 | 32336 ft | 448 kts | 356° |
| 2026-05-01 11:12 | 47.37263 | 9.34346 | 32347 ft | 448 kts | 356° |
| 2026-05-01 11:13 | 47.43443 | 9.33116 | 32350 ft | 449 kts | 356° |
| 2026-05-01 11:13 | 47.49634 | 9.31871 | 32343 ft | 449 kts | 356° |
| 2026-05-01 11:14 | 47.55820 | 9.30628 | 32326 ft | 449 kts | 356° |
| 2026-05-01 11:14 | 47.62019 | 9.29384 | 32327 ft | 450 kts | 356° |
| 2026-05-01 11:15 | 47.68218 | 9.28141 | 32328 ft | 450 kts | 356° |
| 2026-05-01 11:15 | 47.74424 | 9.26884 | 32331 ft | 450 kts | 356° |
| 2026-05-01 11:16 | 47.80627 | 9.25627 | 32332 ft | 450 kts | 356° |
| 2026-05-01 11:16 | 47.86834 | 9.24376 | 32333 ft | 451 kts | 356° |
| 2026-05-01 11:17 | 47.93062 | 9.23117 | 32333 ft | 451 kts | 355° |
| 2026-05-01 11:17 | 47.99277 | 9.21845 | 32336 ft | 451 kts | 355° |
| 2026-05-01 11:18 | 48.05498 | 9.20568 | 32335 ft | 452 kts | 355° |
| 2026-05-01 11:18 | 48.11731 | 9.19299 | 32332 ft | 452 kts | 355° |
| 2026-05-01 11:19 | 48.17968 | 9.18542 | 32329 ft | 447 kts | 6° |
| 2026-05-01 11:19 | 48.24147 | 9.19531 | 32326 ft | 446 kts | 9° |
| 2026-05-01 11:20 | 48.30278 | 9.20561 | 32331 ft | 447 kts | 9° |
| 2026-05-01 11:20 | 48.36453 | 9.21611 | 32329 ft | 447 kts | 9° |
| 2026-05-01 11:21 | 48.42629 | 9.22655 | 32326 ft | 447 kts | 9° |
| 2026-05-01 11:21 | 48.48812 | 9.23699 | 32329 ft | 447 kts | 9° |
| 2026-05-01 11:22 | 48.54989 | 9.24755 | 32329 ft | 447 kts | 9° |
| 2026-05-01 11:22 | 48.61177 | 9.25815 | 32329 ft | 447 kts | 9° |
| 2026-05-01 11:23 | 48.67367 | 9.26810 | 32330 ft | 448 kts | 8° |
| 2026-05-01 11:23 | 48.73580 | 9.27728 | 32308 ft | 449 kts | 6° |
| 2026-05-01 11:24 | 48.79836 | 9.28657 | 32326 ft | 455 kts | 6° |
| 2026-05-01 11:25 | 48.89290 | 9.30111 | 32329 ft | 455 kts | 6° |
| 2026-05-01 11:25 | 48.98739 | 9.31582 | 32332 ft | 455 kts | 6° |
| 2026-05-01 11:26 | 49.08160 | 9.33013 | 32349 ft | 456 kts | 6° |
| 2026-05-01 11:27 | 49.14471 | 9.33995 | 32348 ft | 456 kts | 6° |
| 2026-05-01 11:27 | 49.20778 | 9.34997 | 32352 ft | 456 kts | 6° |
| 2026-05-01 11:28 | 49.27090 | 9.35982 | 32350 ft | 456 kts | 6° |
| 2026-05-01 11:28 | 49.33399 | 9.36961 | 32348 ft | 456 kts | 6° |
| 2026-05-01 11:29 | 49.41801 | 9.38274 | 32353 ft | 456 kts | 6° |
| 2026-05-01 11:30 | 49.51269 | 9.39765 | 32356 ft | 456 kts | 6° |
| 2026-05-01 11:30 | 49.57573 | 9.40767 | 32363 ft | 456 kts | 6° |
| 2026-05-01 11:31 | 49.63876 | 9.41771 | 32367 ft | 455 kts | 6° |
| 2026-05-01 11:31 | 49.70187 | 9.42769 | 32368 ft | 456 kts | 6° |
| 2026-05-01 11:32 | 49.76471 | 9.43763 | 32366 ft | 455 kts | 6° |
| 2026-05-01 11:32 | 49.82774 | 9.44786 | 32367 ft | 455 kts | 6° |
| 2026-05-01 11:33 | 49.89089 | 9.45809 | 32370 ft | 456 kts | 6° |
| 2026-05-01 11:33 | 49.95349 | 9.46819 | 32372 ft | 456 kts | 6° |
| 2026-05-01 11:34 | 50.01709 | 9.47852 | 32374 ft | 456 kts | 6° |
| 2026-05-01 11:34 | 50.07985 | 9.48861 | 32372 ft | 456 kts | 6° |
| 2026-05-01 11:35 | 50.14297 | 9.49907 | 32375 ft | 456 kts | 6° |
| 2026-05-01 11:35 | 50.20613 | 9.50973 | 32377 ft | 457 kts | 6° |
| 2026-05-01 11:36 | 50.26929 | 9.52033 | 32378 ft | 457 kts | 6° |
| 2026-05-01 11:36 | 50.33246 | 9.53092 | 32381 ft | 457 kts | 6° |
| 2026-05-01 11:37 | 50.39567 | 9.54159 | 32385 ft | 457 kts | 6° |
| 2026-05-01 11:37 | 50.45861 | 9.55227 | 32383 ft | 457 kts | 6° |
| 2026-05-01 11:38 | 50.52190 | 9.56304 | 32385 ft | 458 kts | 6° |
| 2026-05-01 11:38 | 50.58529 | 9.57373 | 32384 ft | 458 kts | 6° |
| 2026-05-01 11:39 | 50.64877 | 9.58456 | 32387 ft | 459 kts | 6° |
| 2026-05-01 11:39 | 50.71221 | 9.59538 | 32390 ft | 459 kts | 6° |
| 2026-05-01 11:40 | 50.77563 | 9.60661 | 32391 ft | 459 kts | 7° |
| 2026-05-01 11:40 | 50.83910 | 9.61906 | 32391 ft | 460 kts | 7° |
| 2026-05-01 11:41 | 50.90265 | 9.63070 | 32387 ft | 460 kts | 0° |
| 2026-05-01 11:41 | 50.96615 | 9.61755 | 32390 ft | 461 kts | 351° |
| 2026-05-01 11:42 | 51.02930 | 9.60060 | 31497 ft | 459 kts | 351° |
| 2026-05-01 11:42 | 51.06096 | 9.59213 | 30519 ft | 463 kts | 351° |
| 2026-05-01 11:42 | 51.09284 | 9.58358 | 29352 ft | 467 kts | 351° |
| 2026-05-01 11:42 | 51.12460 | 9.57506 | 28216 ft | 471 kts | 351° |
| 2026-05-01 11:43 | 51.15639 | 9.56653 | 27464 ft | 466 kts | 352° |
| 2026-05-01 11:43 | 51.18850 | 9.55786 | 26745 ft | 461 kts | 352° |
| 2026-05-01 11:43 | 51.21996 | 9.54936 | 26060 ft | 457 kts | 352° |
| 2026-05-01 11:44 | 51.28220 | 9.53258 | 24752 ft | 449 kts | 352° |
| 2026-05-01 11:44 | 51.31282 | 9.52427 | 24119 ft | 445 kts | 352° |
| 2026-05-01 11:44 | 51.34326 | 9.51600 | 23394 ft | 442 kts | 352° |
| 2026-05-01 11:44 | 51.37351 | 9.50776 | 22676 ft | 438 kts | 352° |
| 2026-05-01 11:45 | 51.40328 | 9.49964 | 21951 ft | 435 kts | 352° |
| 2026-05-01 11:45 | 51.43319 | 9.49148 | 21233 ft | 432 kts | 352° |
| 2026-05-01 11:45 | 51.46270 | 9.48348 | 20525 ft | 429 kts | 352° |
| 2026-05-01 11:45 | 51.49199 | 9.47553 | 19841 ft | 426 kts | 352° |
| 2026-05-01 11:46 | 51.52113 | 9.46759 | 19174 ft | 423 kts | 352° |
| 2026-05-01 11:46 | 51.55008 | 9.45965 | 18515 ft | 420 kts | 352° |
| 2026-05-01 11:46 | 51.57800 | 9.45197 | 17818 ft | 418 kts | 352° |
| 2026-05-01 11:46 | 51.60647 | 9.44414 | 17133 ft | 413 kts | 352° |
| 2026-05-01 11:47 | 51.63438 | 9.43648 | 16564 ft | 401 kts | 352° |
| 2026-05-01 11:47 | 51.66151 | 9.42901 | 15928 ft | 392 kts | 352° |
| 2026-05-01 11:47 | 51.68813 | 9.42166 | 15406 ft | 381 kts | 352° |
| 2026-05-01 11:47 | 51.71395 | 9.41452 | 14945 ft | 372 kts | 352° |
| 2026-05-01 11:48 | 51.73890 | 9.40763 | 14498 ft | 364 kts | 352° |
| 2026-05-01 11:48 | 51.76363 | 9.40083 | 14030 ft | 357 kts | 352° |
| 2026-05-01 11:48 | 51.78791 | 9.39415 | 13531 ft | 351 kts | 352° |
| 2026-05-01 11:48 | 51.81177 | 9.38757 | 13038 ft | 345 kts | 352° |
| 2026-05-01 11:49 | 51.83521 | 9.38109 | 12557 ft | 340 kts | 352° |
| 2026-05-01 11:49 | 51.85832 | 9.37464 | 12292 ft | 331 kts | 352° |
| 2026-05-01 11:49 | 51.88057 | 9.36841 | 12159 ft | 319 kts | 352° |
| 2026-05-01 11:49 | 51.90223 | 9.36238 | 11895 ft | 313 kts | 352° |
| 2026-05-01 11:50 | 51.92331 | 9.35653 | 11554 ft | 310 kts | 352° |
| 2026-05-01 11:50 | 51.94454 | 9.35063 | 11212 ft | 309 kts | 352° |
| 2026-05-01 11:50 | 51.96597 | 9.34469 | 10852 ft | 308 kts | 352° |
| 2026-05-01 11:50 | 51.98706 | 9.33883 | 10501 ft | 306 kts | 352° |
| 2026-05-01 11:51 | 52.00765 | 9.33310 | 10370 ft | 305 kts | 352° |
| 2026-05-01 11:51 | 52.02856 | 9.32727 | 10375 ft | 300 kts | 352° |
| 2026-05-01 11:51 | 52.04856 | 9.32164 | 10385 ft | 284 kts | 352° |
| 2026-05-01 11:51 | 52.06786 | 9.31619 | 10390 ft | 280 kts | 353° |
| 2026-05-01 11:52 | 52.08704 | 9.31080 | 10383 ft | 280 kts | 353° |
| 2026-05-01 11:52 | 52.10624 | 9.30542 | 10381 ft | 280 kts | 353° |
| 2026-05-01 11:52 | 52.12545 | 9.30005 | 10386 ft | 280 kts | 352° |
| 2026-05-01 11:52 | 52.14463 | 9.29467 | 10383 ft | 280 kts | 352° |
| 2026-05-01 11:53 | 52.16381 | 9.28932 | 10382 ft | 280 kts | 352° |
| 2026-05-01 11:53 | 52.18301 | 9.28394 | 10382 ft | 280 kts | 353° |
| 2026-05-01 11:53 | 52.20219 | 9.27856 | 10382 ft | 280 kts | 352° |
| 2026-05-01 11:53 | 52.22140 | 9.27313 | 10382 ft | 280 kts | 352° |
| 2026-05-01 11:54 | 52.24056 | 9.26872 | 10380 ft | 277 kts | 4° |
| 2026-05-01 11:54 | 52.25898 | 9.27525 | 10383 ft | 269 kts | 31° |
| 2026-05-01 11:54 | 52.27372 | 9.29312 | 10381 ft | 262 kts | 54° |
| 2026-05-01 11:54 | 52.28275 | 9.31820 | 10384 ft | 255 kts | 76° |
| 2026-05-01 11:55 | 52.28536 | 9.34630 | 10381 ft | 249 kts | 97° |
| 2026-05-01 11:55 | 52.28150 | 9.37350 | 10384 ft | 245 kts | 117° |
| 2026-05-01 11:55 | 52.27192 | 9.39618 | 10380 ft | 244 kts | 136° |
| 2026-05-01 11:55 | 52.25817 | 9.41166 | 10130 ft | 243 kts | 156° |
| 2026-05-01 11:56 | 52.24177 | 9.41788 | 9762 ft | 245 kts | 176° |
| 2026-05-01 11:56 | 52.22494 | 9.41594 | 9418 ft | 246 kts | 185° |
| 2026-05-01 11:56 | 52.20800 | 9.41187 | 9090 ft | 246 kts | 186° |
| 2026-05-01 11:56 | 52.19115 | 9.40720 | 8813 ft | 245 kts | 187° |
| 2026-05-01 11:57 | 52.17435 | 9.40244 | 8477 ft | 244 kts | 187° |
| 2026-05-01 11:57 | 52.15768 | 9.39780 | 8174 ft | 243 kts | 186° |
| 2026-05-01 11:57 | 52.14108 | 9.39310 | 7868 ft | 242 kts | 190° |
| 2026-05-01 11:57 | 52.12551 | 9.38236 | 7584 ft | 247 kts | 211° |
| 2026-05-01 11:58 | 52.11334 | 9.36288 | 7427 ft | 251 kts | 233° |
| 2026-05-01 11:58 | 52.10629 | 9.33666 | 7376 ft | 258 kts | 256° |
| 2026-05-01 11:58 | 52.11324 | 9.27964 | 7380 ft | 268 kts | 306° |
| 2026-05-01 11:59 | 52.12674 | 9.25914 | 7382 ft | 267 kts | 331° |
| 2026-05-01 11:59 | 52.14405 | 9.24926 | 7382 ft | 264 kts | 356° |
| 2026-05-01 11:59 | 52.16230 | 9.24705 | 7218 ft | 264 kts | 356° |
| 2026-05-01 12:00 | 52.19865 | 9.23916 | 6612 ft | 263 kts | 354° |
| 2026-05-01 12:00 | 52.21667 | 9.23499 | 6350 ft | 261 kts | 354° |
| 2026-05-01 12:00 | 52.25261 | 9.22690 | 5762 ft | 260 kts | 354° |
| 2026-05-01 12:01 | 52.27046 | 9.22294 | 5430 ft | 259 kts | 354° |
| 2026-05-01 12:01 | 52.28831 | 9.21892 | 5062 ft | 258 kts | 354° |
| 2026-05-01 12:01 | 52.30597 | 9.21501 | 4984 ft | 257 kts | 354° |
| 2026-05-01 12:01 | 52.32368 | 9.21120 | 4982 ft | 258 kts | 354° |
| 2026-05-01 12:02 | 52.34157 | 9.20739 | 4990 ft | 259 kts | 354° |
| 2026-05-01 12:02 | 52.35944 | 9.20366 | 4981 ft | 258 kts | 354° |
| 2026-05-01 12:02 | 52.37719 | 9.19997 | 5009 ft | 253 kts | 354° |
| 2026-05-01 12:02 | 52.39407 | 9.19637 | 4982 ft | 238 kts | 354° |
| 2026-05-01 12:03 | 52.40992 | 9.19293 | 4978 ft | 219 kts | 354° |
| 2026-05-01 12:03 | 52.42440 | 9.18974 | 4988 ft | 202 kts | 354° |
| 2026-05-01 12:03 | 52.43811 | 9.18670 | 4818 ft | 197 kts | 354° |
| 2026-05-01 12:03 | 52.45138 | 9.18888 | 4555 ft | 191 kts | 30° |
| 2026-05-01 12:04 | 52.46073 | 9.20276 | 4346 ft | 179 kts | 59° |
| 2026-05-01 12:04 | 52.46679 | 9.22035 | 4037 ft | 175 kts | 83° |
| 2026-05-01 12:04 | 52.46585 | 9.23926 | 3898 ft | 168 kts | 102° |
| 2026-05-01 12:04 | 52.46540 | 9.25854 | 3727 ft | 169 kts | 95° |
| 2026-05-01 12:05 | 52.46512 | 9.27777 | 3503 ft | 168 kts | 95° |
| 2026-05-01 12:05 | 52.46428 | 9.31602 | 2996 ft | 168 kts | 96° |
| 2026-05-01 12:05 | 52.46383 | 9.33497 | 2986 ft | 169 kts | 95° |
| 2026-05-01 12:06 | 52.46336 | 9.35425 | 2991 ft | 169 kts | 95° |
| 2026-05-01 12:06 | 52.46289 | 9.37348 | 2982 ft | 169 kts | 95° |
| 2026-05-01 12:06 | 52.46241 | 9.39279 | 2986 ft | 169 kts | 95° |
| 2026-05-01 12:06 | 52.46193 | 9.41204 | 2987 ft | 169 kts | 96° |
| 2026-05-01 12:07 | 52.46144 | 9.43135 | 2971 ft | 169 kts | 94° |
| 2026-05-01 12:07 | 52.46094 | 9.45074 | 2849 ft | 171 kts | 95° |
| 2026-05-01 12:07 | 52.46045 | 9.47014 | 2671 ft | 172 kts | 95° |
| 2026-05-01 12:07 | 52.45995 | 9.48985 | 2454 ft | 171 kts | 95° |
| 2026-05-01 12:08 | 52.45944 | 9.50933 | 2212 ft | 169 kts | 95° |
| 2026-05-01 12:08 | 52.45894 | 9.52844 | 1982 ft | 167 kts | 95° |
| 2026-05-01 12:08 | 52.45844 | 9.54767 | 1747 ft | 171 kts | 94° |
| 2026-05-01 12:08 | 52.45796 | 9.56638 | 1516 ft | 155 kts | 94° |
| 2026-05-01 12:09 | 52.45750 | 9.58349 | 1338 ft | 145 kts | 95° |
| 2026-05-01 12:09 | 52.45705 | 9.59975 | 1162 ft | 142 kts | 97° |
| 2026-05-01 12:09 | 52.45650 | 9.61566 | 932 ft | 138 kts | 95° |
| 2026-05-01 12:09 | 52.45610 | 9.63159 | 783 ft | 140 kts | 96° |
| 2026-05-01 12:10 | 52.45566 | 9.64736 | 565 ft | 137 kts | 95° |
| 2026-05-01 12:10 | 52.45490 | 9.67898 | 200 ft | 139 kts | 94° |
| 2026-05-01 12:10 | 52.45452 | 9.69305 | 185 ft | 96 kts | 93° |
| 2026-05-01 12:11 | 52.45424 | 9.70391 | 193 ft | 33 kts | 91° |
| 2026-05-01 12:11 | 52.45420 | 9.70612 | 186 ft | 12 kts | 86° |
| 2026-05-01 12:11 | 52.45483 | 9.70671 | 183 ft | 12 kts | 5° |
| 2026-05-01 12:12 | 52.45540 | 9.70671 | 187 ft | 6 kts | 1° |
| 2026-05-01 12:12 | 52.45542 | 9.70671 | 187 ft | 0 kts | 1° |
| 2026-05-01 12:12 | 52.45543 | 9.70671 | 186 ft | 1 kts | 1° |
| 2026-05-01 12:13 | 52.45560 | 9.70672 | 191 ft | 4 kts | 1° |
| 2026-05-01 12:13 | 52.45596 | 9.70673 | 182 ft | 6 kts | 0° |
| 2026-05-01 12:13 | 52.45645 | 9.70629 | 183 ft | 10 kts | 298° |
| 2026-05-01 12:13 | 52.45654 | 9.70506 | 183 ft | 11 kts | 273° |
| 2026-05-01 12:14 | 52.45658 | 9.70379 | 185 ft | 11 kts | 272° |
| 2026-05-01 12:14 | 52.45661 | 9.70252 | 185 ft | 11 kts | 272° |
| 2026-05-01 12:14 | 52.45663 | 9.70128 | 186 ft | 10 kts | 273° |
| 2026-05-01 12:14 | 52.45667 | 9.70020 | 185 ft | 9 kts | 273° |
| 2026-05-01 12:15 | 52.45670 | 9.69926 | 181 ft | 8 kts | 273° |
| 2026-05-01 12:15 | 52.45673 | 9.69846 | 185 ft | 6 kts | 273° |
| 2026-05-01 12:15 | 52.45674 | 9.69776 | 184 ft | 6 kts | 270° |
| 2026-05-01 12:15 | 52.45690 | 9.69724 | 185 ft | 6 kts | 340° |
| 2026-05-01 12:16 | 52.45733 | 9.69706 | 182 ft | 3 kts | 354° |
| 2026-05-01 12:16 | 52.45739 | 9.69705 | 182 ft | 0 kts | 355° |